Wetterdaten: aktuell Freitag, 14.08.2020 04:20
Datum Zeit Temperatur Bodentemp. Luftfeuchte Luftdruck Niederschlag Windgeschw. Windrichtung Windrichtung Sonnenschein Nieder.dauer Evapotrans. Solarstrahl. Taupunkt Windchill Windböen
14.08.2020 04:20 15,5 °C 15,6 °C 90 % 1012,2 hPa 0,0 l/m² 0,0 km/h (0 Bft) NO 45 ° 0 min 0 min 0 mm 0 W/m² 13,9 °C 15,5 °C 1,8 km/h (1 Bft)
14.08.2020 03:20 15,8 °C 15,6 °C 89 % 1012,8 hPa 0,0 l/m² 0,0 km/h (0 Bft) NO 45 ° 0 min 0 min 0 mm 0 W/m² 14,0 °C 15,8 °C 1,8 km/h (1 Bft)
14.08.2020 02:20 17,0 °C 16,1 °C 85 % 1013,3 hPa 0,0 l/m² 0,0 km/h (0 Bft) N 0 ° 0 min 0 min 0 mm 0 W/m² 14,5 °C 17,0 °C 0,0 km/h (0 Bft)
14.08.2020 01:20 17,4 °C 16,7 °C 84 % 1013,4 hPa 0,0 l/m² 1,8 km/h (1 Bft) NO 45 ° 0 min 0 min 0 mm 0 W/m² 14,7 °C 17,4 °C 3,6 km/h (1 Bft)
14.08.2020 00:20 18,1 °C 17,2 °C 81 % 1013,9 hPa 0,0 l/m² 1,8 km/h (1 Bft) O-NO 67 ° 0 min 0 min 0 mm 0 W/m² 14,8 °C 18,1 °C 3,6 km/h (1 Bft)
13.08.2020 23:20 18,6 °C 17,8 °C 78 % 1013,9 hPa 0,0 l/m² 1,8 km/h (1 Bft) O-NO 67 ° 0 min 0 min 0 mm 0 W/m² 14,7 °C 18,6 °C 1,8 km/h (1 Bft)
13.08.2020 22:20 19,5 °C 18,3 °C 71 % 1013,7 hPa 0,0 l/m² 3,6 km/h (1 Bft) O-NO 67 ° 0 min 0 min 0 mm 0 W/m² 14,1 °C 19,5 °C 7,2 km/h (2 Bft)
13.08.2020 21:20 21,2 °C 19,4 °C 66 % 1013,3 hPa 0,0 l/m² 1,8 km/h (1 Bft) O-NO 67 ° 8 min 0 min 0 mm 0 W/m² 14,6 °C 21,2 °C 5,4 km/h (1 Bft)
13.08.2020 20:20 23,4 °C 22,8 °C 56 % 1012,9 hPa 0,0 l/m² 5,4 km/h (1 Bft) O-NO 67 ° 5 min 0 min 0 mm 26 W/m² 14,1 °C 23,4 °C 12,6 km/h (3 Bft)
13.08.2020 19:20 25,5 °C 24,4 °C 49 % 1013,0 hPa 0,0 l/m² 5,4 km/h (1 Bft) O-NO 67 ° 59 min 0 min 0 mm 142 W/m² 14,0 °C 25,5 °C 10,8 km/h (2 Bft)
13.08.2020 18:20 26,9 °C 26,1 °C 43 % 1013,3 hPa 0,0 l/m² 9,0 km/h (2 Bft) NO 45 ° 60 min 0 min 0 mm 299 W/m² 13,2 °C 26,9 °C 16,1 km/h (3 Bft)
13.08.2020 17:20 28,1 °C 27,8 °C 42 % 1013,3 hPa 0,0 l/m² 7,2 km/h (2 Bft) NO 45 ° 60 min 0 min 0 mm 457 W/m² 14,0 °C 28,1 °C 17,9 km/h (3 Bft)
13.08.2020 16:20 28,7 °C 28,3 °C 38 % 1013,5 hPa 0,0 l/m² 9,0 km/h (2 Bft) O-NO 67 ° 60 min 0 min 1 mm 585 W/m² 13,0 °C 28,7 °C 12,6 km/h (3 Bft)
13.08.2020 15:20 29,2 °C 28,3 °C 35 % 1013,9 hPa 0,0 l/m² 7,2 km/h (2 Bft) O-NO 67 ° 60 min 0 min 1 mm 698 W/m² 12,1 °C 29,2 °C 12,6 km/h (3 Bft)
13.08.2020 14:20 29,5 °C 28,9 °C 33 % 1014,2 hPa 0,0 l/m² 14,4 km/h (3 Bft) O 90 ° 60 min 0 min 1 mm 765 W/m² 11,5 °C 29,5 °C 19,7 km/h (3 Bft)
13.08.2020 13:20 28,9 °C 28,3 °C 37 % 1014,3 hPa 0,0 l/m² 10,8 km/h (2 Bft) O-NO 67 ° 60 min 0 min 1 mm 784 W/m² 12,7 °C 28,9 °C 16,1 km/h (3 Bft)
13.08.2020 12:20 28,3 °C 27,2 °C 44 % 1014,6 hPa 0,0 l/m² 10,8 km/h (2 Bft) O 90 ° 60 min 0 min 1 mm 758 W/m² 14,9 °C 28,3 °C 16,1 km/h (3 Bft)
13.08.2020 11:20 26,7 °C 26,1 °C 45 % 1014,9 hPa 0,0 l/m² 12,6 km/h (3 Bft) O 90 ° 60 min 0 min 0 mm 689 W/m² 13,8 °C 26,7 °C 17,9 km/h (3 Bft)
13.08.2020 10:20 24,7 °C 23,9 °C 56 % 1015,0 hPa 0,0 l/m² 9,0 km/h (2 Bft) O-NO 67 ° 60 min 0 min 0 mm 584 W/m² 15,3 °C 24,7 °C 16,1 km/h (3 Bft)
13.08.2020 09:20 22,8 °C 21,7 °C 67 % 1015,1 hPa 0,0 l/m² 5,4 km/h (1 Bft) O 90 ° 60 min 0 min 0 mm 448 W/m² 16,3 °C 22,8 °C 10,8 km/h (2 Bft)
13.08.2020 08:20 20,4 °C 19,4 °C 76 % 1015,1 hPa 0,0 l/m² 3,6 km/h (1 Bft) O 90 ° 60 min 0 min 0 mm 302 W/m² 16,0 °C 20,4 °C 7,2 km/h (2 Bft)
13.08.2020 07:20 17,9 °C 17,2 °C 85 % 1015,3 hPa 0,0 l/m² 9,0 km/h (2 Bft) O-SO 112 ° 16 min 0 min 0 mm 153 W/m² 15,3 °C 17,9 °C 14,4 km/h (3 Bft)
13.08.2020 06:20 16,7 °C 16,1 °C 89 % 1015,3 hPa 0,0 l/m² 5,4 km/h (1 Bft) O 90 ° 7 min 0 min 0 mm 23 W/m² 14,9 °C 16,7 °C 7,2 km/h (2 Bft)
13.08.2020 05:20 16,7 °C 16,1 °C 87 % 1015,2 hPa 0,0 l/m² 5,4 km/h (1 Bft) O 90 ° 0 min 0 min 0 mm 0 W/m² 14,5 °C 16,7 °C 10,8 km/h (2 Bft)
13.08.2020 05:00 16,8 °C 16,1 °C 86 % 1015,1 hPa 0,0 l/m² 1,8 km/h (1 Bft) O 90 ° 0 min 0 min 0 mm 0 W/m² 14,4 °C 16,8 °C 3,6 km/h (1 Bft)
_ Min-Zeit 04:17 05:40 14:03 04:00 - 21:46 - - - - - - 14:13 04:17 23:07
Minimum _ 15,5 °C 15,6 °C 32 % 1012,2 hPa - 0,0 km/h (0 Bft) - - - - - - 10,8 °C 15,5 °C 0,0 km/h (0 Bft)
_ Max-Zeit 14:20 13:31 03:21 06:30 05:00 14:04 - - 06:08 05:00 14:00 13:31 09:11 14:20 15:01
Maximum _ 29,5 °C 28,9 °C 90 % 1015,4 hPa 0,0 l/m² 19,7 km/h
O (3 Bft)
- - 1 min 0 min 1 mm 788 W/m² 16,5 °C 29,5 °C 28,7 km/h
O (4 Bft)
Durchschnitt _ 22,1 °C 21,4 °C 65 % 1014,1 hPa #0,0 l/m² 5,6 km/h (1 Bft) O - #0 min. #0 min. #0,000 mm 0 W/m² 14,3 °C 22,1 °C 9,5 km/h (2 Bft)